Time;durP1;ratioP1;P1;durP2;ratioP2;P2;SDS_P1;SDS_P2;PMS_P1;PMS_P2;Temp;Humidity;BMP_temperature;BMP_pressure;BME280_temperature;BME280_humidity;BME280_pressure;Samples;Min_cycle;Max_cycle;Signal;HPM_P1;HPM_P2
2023/07/04 00:01:05;;;;;;;6.05;2.20;;;;;;;17.79;52.81;99381.41;5042636;28;20437;-75
2023/07/04 00:03:31;;;;;;;7.72;2.55;;;;;;;17.97;52.54;99382.22;5042926;28;20045;-74
2023/07/04 00:05:57;;;;;;;8.30;2.83;;;;;;;17.97;52.68;99381.41;5043444;28;20155;-76
2023/07/04 00:08:28;;;;;;;9.40;2.88;;;;;;;17.90;53.05;99381.09;5042267;28;20167;-75
2023/07/04 00:10:56;;;;;;;4.10;1.90;;;;;;;17.69;53.52;99381.72;5043117;28;20040;-76
2023/07/04 00:13:22;;;;;;;10.07;2.42;;;;;;;17.74;53.51;99373.28;5042989;28;20430;-75
2023/07/04 00:15:50;;;;;;;7.93;2.63;;;;;;;17.61;54.06;99381.34;5042507;28;20045;-76
2023/07/04 00:18:20;;;;;;;12.30;3.15;;;;;;;17.77;53.84;99367.13;5042334;28;20311;-76
2023/07/04 00:20:45;;;;;;;4.30;2.13;;;;;;;17.90;53.26;99378.34;5043174;28;20920;-76
2023/07/04 00:23:10;;;;;;;6.05;1.70;;;;;;;17.71;53.97;99380.25;5042846;28;20417;-77
2023/07/04 00:25:35;;;;;;;11.17;2.90;;;;;;;17.73;54.52;99371.66;5043553;28;20536;-76
2023/07/04 00:28:05;;;;;;;13.97;4.97;;;;;;;17.60;54.41;99367.91;5042403;28;20266;-75
2023/07/04 00:30:31;;;;;;;10.00;3.05;;;;;;;17.59;54.65;99393.88;5042863;28;20273;-76
2023/07/04 00:32:56;;;;;;;6.85;2.22;;;;;;;17.50;55.04;99382.81;5042946;28;20111;-76
2023/07/04 00:35:22;;;;;;;8.18;2.42;;;;;;;17.57;55.24;99388.69;5041331;28;20040;-76
2023/07/04 00:37:47;;;;;;;6.18;3.35;;;;;;;17.59;55.15;99383.63;5043033;28;20371;-76
2023/07/04 00:40:12;;;;;;;14.77;3.27;;;;;;;17.69;55.14;99392.75;5042303;28;20040;-76
2023/07/04 00:42:39;;;;;;;6.50;2.63;;;;;;;17.71;55.26;99393.22;5042984;28;20044;-76
2023/07/04 00:45:20;;;;;;;6.95;2.58;;;;;;;17.53;55.52;99395.16;5042643;28;20095;-76
2023/07/04 00:47:54;;;;;;;11.65;3.20;;;;;;;17.57;55.90;99385.09;5042656;28;20529;-76
2023/07/04 00:50:31;;;;;;;11.10;3.42;;;;;;;17.62;55.43;99405.06;5042064;28;21003;-76
2023/07/04 00:52:59;;;;;;;8.77;2.92;;;;;;;17.56;55.66;99400.00;5042853;28;20098;-76
2023/07/04 00:55:25;;;;;;;11.38;3.40;;;;;;;17.58;55.97;99398.56;5041146;28;20029;-76
2023/07/04 00:57:50;;;;;;;7.63;1.90;;;;;;;17.49;56.08;99408.75;5042387;28;20047;-76
2023/07/04 01:00:23;;;;;;;7.35;2.60;;;;;;;17.40;56.22;99403.22;5042269;28;20063;-76
2023/07/04 01:03:13;;;;;;;8.20;3.25;;;;;;;17.34;56.32;99397.03;5042331;28;20794;-74
2023/07/04 01:05:41;;;;;;;6.95;2.08;;;;;;;17.31;56.29;99405.94;5042387;28;20041;-75
2023/07/04 01:08:14;;;;;;;8.57;2.80;;;;;;;17.35;56.50;99397.88;5042015;28;20067;-73
2023/07/04 01:10:43;;;;;;;5.60;2.60;;;;;;;17.47;56.33;99409.06;5040944;28;20059;-74
2023/07/04 01:13:35;;;;;;;7.18;2.78;;;;;;;17.51;55.98;99392.72;5042005;28;20267;-74
2023/07/04 01:16:06;;;;;;;17.73;3.60;;;;;;;17.41;56.51;99390.25;5041210;28;20067;-74
2023/07/04 01:18:32;;;;;;;6.57;2.15;;;;;;;17.43;56.33;99391.53;5045526;28;20037;-75
2023/07/04 01:20:59;;;;;;;8.50;3.20;;;;;;;17.41;56.91;99398.53;5045977;28;20132;-74
2023/07/04 01:24:08;;;;;;;8.15;3.33;;;;;;;17.44;56.47;99392.34;5046221;28;20120;-74
2023/07/04 01:26:41;;;;;;;19.73;4.55;;;;;;;17.37;57.01;99390.88;5036857;28;20052;-75
2023/07/04 01:29:09;;;;;;;16.73;2.67;;;;;;;17.30;57.03;99393.31;5045316;28;20040;-74
2023/07/04 01:31:35;;;;;;;16.42;5.30;;;;;;;17.42;57.17;99392.69;5045701;28;20036;-74
2023/07/04 01:34:04;;;;;;;7.97;2.38;;;;;;;17.30;57.20;99398.81;5045931;28;20222;-75
2023/07/04 01:36:32;;;;;;;6.45;2.13;;;;;;;17.27;57.56;99404.94;5045482;28;20375;-74
2023/07/04 01:38:57;;;;;;;8.68;3.10;;;;;;;17.24;57.73;99398.16;5045241;28;20035;-74
2023/07/04 01:41:24;;;;;;;18.20;3.47;;;;;;;17.31;57.77;99405.13;5045526;28;20414;-74
2023/07/04 01:44:00;;;;;;;11.88;2.03;;;;;;;17.00;58.79;99410.31;5045504;28;20017;-75
2023/07/04 01:46:26;;;;;;;10.18;2.58;;;;;;;16.98;58.93;99409.84;5045534;28;20025;-73
2023/07/04 01:48:52;;;;;;;9.80;2.33;;;;;;;17.07;58.82;99407.13;5044999;28;20036;-73
2023/07/04 01:51:43;;;;;;;11.23;2.25;;;;;;;17.02;58.90;99407.28;5045203;28;20035;-73
2023/07/04 01:54:10;;;;;;;12.75;3.47;;;;;;;17.15;58.59;99411.06;5043197;28;20115;-74
2023/07/04 01:56:37;;;;;;;8.18;2.05;;;;;;;17.04;58.83;99402.25;5045484;28;20025;-73
2023/07/04 01:59:02;;;;;;;8.35;4.18;;;;;;;17.07;59.09;99404.38;5043082;28;20041;-75
2023/07/04 02:01:28;;;;;;;9.33;2.63;;;;;;;17.04;59.63;99405.00;5045060;28;20067;-74
2023/07/04 02:03:54;;;;;;;12.57;4.18;;;;;;;17.20;59.14;99404.59;5045380;28;20290;-74
2023/07/04 02:06:19;;;;;;;12.57;2.60;;;;;;;17.26;58.82;99400.59;5044709;28;20391;-74
2023/07/04 02:08:45;;;;;;;11.88;2.83;;;;;;;17.32;58.78;99401.25;5044943;28;20048;-74
2023/07/04 02:11:12;;;;;;;12.45;2.83;;;;;;;17.30;58.81;99409.84;5045015;28;20033;-74
2023/07/04 02:13:37;;;;;;;8.32;2.70;;;;;;;17.22;59.08;99405.09;5045170;28;20041;-74
2023/07/04 02:16:02;;;;;;;14.77;4.15;;;;;;;17.08;59.73;99389.47;5025282;28;20519;-75
2023/07/04 02:18:28;;;;;;;12.77;4.28;;;;;;;17.23;59.26;99398.44;5025182;28;20414;-76
2023/07/04 02:20:53;;;;;;;10.43;3.43;;;;;;;17.31;59.03;99399.63;5025488;28;20037;-76
2023/07/04 02:23:18;;;;;;;11.23;2.77;;;;;;;17.15;59.70;99400.03;5025552;28;20756;-76
2023/07/04 02:25:44;;;;;;;7.20;2.58;;;;;;;17.02;60.00;99393.50;5025369;28;20286;-76
2023/07/04 02:28:10;;;;;;;7.75;2.70;;;;;;;17.06;59.92;99405.50;5024706;28;20434;-76
2023/07/04 02:30:35;;;;;;;14.82;3.83;;;;;;;16.74;61.09;99405.50;5024929;28;20711;-76
2023/07/04 02:33:01;;;;;;;8.00;2.30;;;;;;;16.85;61.02;99405.22;5025258;28;20075;-75
2023/07/04 02:35:28;;;;;;;9.05;2.13;;;;;;;16.88;61.32;99410.91;5024908;28;20121;-75
2023/07/04 02:37:53;;;;;;;8.48;3.67;;;;;;;16.98;61.06;99398.03;5024846;28;20045;-76
2023/07/04 02:40:18;;;;;;;5.53;2.50;;;;;;;17.04;60.84;99405.00;5024509;28;20034;-75
2023/07/04 02:42:43;;;;;;;10.57;2.07;;;;;;;16.96;61.35;99405.78;5024697;28;20342;-76
2023/07/04 02:45:09;;;;;;;15.87;4.47;;;;;;;16.95;61.28;99404.16;5024347;28;20270;-75
2023/07/04 02:47:34;;;;;;;10.88;3.97;;;;;;;16.96;61.29;99398.34;5024669;28;20266;-76
2023/07/04 02:50:00;;;;;;;8.02;2.95;;;;;;;16.87;61.41;99398.28;5024852;28;20415;-76
2023/07/04 02:52:26;;;;;;;11.57;3.15;;;;;;;16.97;61.26;99396.38;5024871;28;20065;-76
2023/07/04 02:54:52;;;;;;;10.57;3.33;;;;;;;17.04;61.07;99410.53;5024285;28;20033;-76
2023/07/04 02:57:18;;;;;;;19.40;3.17;;;;;;;16.79;61.54;99413.63;5024171;28;20033;-76
2023/07/04 02:59:44;;;;;;;9.98;2.50;;;;;;;16.92;61.71;99417.41;5023843;28;20091;-76
2023/07/04 03:02:09;;;;;;;16.88;3.03;;;;;;;16.79;62.28;99416.38;5024237;28;20037;-76
2023/07/04 03:04:36;;;;;;;14.57;4.15;;;;;;;16.58;62.64;99410.59;5024399;28;20290;-75
2023/07/04 03:07:02;;;;;;;12.27;2.70;;;;;;;16.53;63.28;99416.22;5024006;28;20475;-75
2023/07/04 03:09:27;;;;;;;9.88;3.20;;;;;;;16.77;63.12;99415.06;5023767;28;20087;-76
2023/07/04 03:11:52;;;;;;;9.90;3.17;;;;;;;16.75;62.64;99414.56;5024597;28;20060;-76
2023/07/04 03:14:17;;;;;;;25.87;2.60;;;;;;;16.73;63.24;99408.56;5029224;28;20278;-76
2023/07/04 03:16:43;;;;;;;10.85;2.97;;;;;;;16.61;63.26;99418.22;5044169;28;20312;-76
2023/07/04 03:19:08;;;;;;;8.13;2.33;;;;;;;16.62;63.74;99408.84;5043555;28;20049;-75
2023/07/04 03:21:33;;;;;;;16.07;3.07;;;;;;;16.62;63.77;99419.03;5044381;28;20271;-76
2023/07/04 03:23:59;;;;;;;13.33;4.00;;;;;;;16.63;63.51;99410.47;5044333;28;20250;-76
2023/07/04 03:26:24;;;;;;;8.77;2.83;;;;;;;16.62;63.52;99414.34;5043837;28;20276;-75
2023/07/04 03:28:49;;;;;;;13.10;3.03;;;;;;;16.73;63.50;99423.16;5043301;28;20052;-76
2023/07/04 03:31:15;;;;;;;5.90;2.00;;;;;;;16.43;64.26;99415.34;5044189;28;20258;-75
2023/07/04 03:33:40;;;;;;;8.77;2.25;;;;;;;16.73;63.68;99414.06;5043151;28;20091;-75
2023/07/04 03:36:06;;;;;;;8.53;3.80;;;;;;;16.95;63.12;99412.41;5043351;28;20044;-74
2023/07/04 03:38:31;;;;;;;15.98;3.38;;;;;;;16.89;62.81;99414.47;5042649;28;20340;-75
2023/07/04 03:40:56;;;;;;;8.38;2.85;;;;;;;16.75;63.48;99422.84;5043471;28;20060;-74
2023/07/04 03:43:23;;;;;;;10.80;3.05;;;;;;;16.62;64.08;99419.84;5042981;28;20036;-74
2023/07/04 03:45:48;;;;;;;9.00;3.15;;;;;;;16.87;63.17;99414.00;5043518;28;20039;-74
2023/07/04 03:48:13;;;;;;;9.27;3.40;;;;;;;16.78;63.76;99425.75;5042773;28;20033;-75
2023/07/04 03:50:39;;;;;;;7.67;2.43;;;;;;;16.48;64.85;99425.41;5043482;28;20036;-74
2023/07/04 03:53:04;;;;;;;14.05;4.20;;;;;;;16.78;64.41;99427.72;5043194;28;20305;-74
2023/07/04 03:55:29;;;;;;;8.13;3.33;;;;;;;16.71;64.39;99433.66;5042847;28;20060;-74
2023/07/04 03:57:54;;;;;;;13.20;4.57;;;;;;;16.65;64.35;99424.72;5043303;28;20296;-74
2023/07/04 04:00:20;;;;;;;8.93;2.50;;;;;;;16.61;65.05;99423.72;5042475;28;20335;-74
2023/07/04 04:02:45;;;;;;;5.65;2.28;;;;;;;16.79;64.60;99430.16;5043305;28;20037;-74
2023/07/04 04:05:12;;;;;;;19.47;3.47;;;;;;;16.83;64.86;99435.84;5043293;28;20061;-74
2023/07/04 04:07:37;;;;;;;14.23;2.95;;;;;;;16.86;64.13;99417.88;5043071;28;21086;-74
2023/07/04 04:10:02;;;;;;;10.35;3.25;;;;;;;16.90;64.32;99427.13;5042405;28;20032;-74
2023/07/04 04:12:28;;;;;;;10.85;4.43;;;;;;;16.71;65.01;99432.84;5042685;28;20096;-74
2023/07/04 04:14:53;;;;;;;10.38;3.05;;;;;;;16.66;65.67;99436.53;5042847;28;20094;-74
2023/07/04 04:17:18;;;;;;;7.20;2.67;;;;;;;16.51;65.97;99437.75;5042620;28;20041;-74
2023/07/04 04:19:44;;;;;;;7.78;3.08;;;;;;;16.60;65.89;99444.09;5042100;28;20342;-74
2023/07/04 04:22:09;;;;;;;11.00;3.37;;;;;;;16.56;66.04;99438.41;5042804;28;20037;-74
2023/07/04 04:24:36;;;;;;;10.63;3.23;;;;;;;16.41;66.65;99444.31;5043080;28;20250;-74
2023/07/04 04:27:03;;;;;;;8.80;3.25;;;;;;;16.45;66.50;99443.34;5042569;28;21142;-74
2023/07/04 04:29:28;;;;;;;11.50;3.90;;;;;;;16.54;66.47;99445.34;5042302;28;20037;-75
2023/07/04 04:31:55;;;;;;;13.23;3.65;;;;;;;16.53;66.80;99449.25;5042762;28;20094;-74
2023/07/04 04:34:22;;;;;;;19.27;4.03;;;;;;;16.54;66.66;99445.34;5042372;28;20044;-74
2023/07/04 04:36:48;;;;;;;17.00;4.25;;;;;;;16.47;67.13;99453.25;5042296;28;20040;-75
2023/07/04 04:39:13;;;;;;;11.00;3.42;;;;;;;16.67;66.48;99457.44;5042014;28;20037;-74
2023/07/04 04:41:39;;;;;;;27.27;3.25;;;;;;;16.60;66.47;99457.88;5042790;28;20060;-75
2023/07/04 04:44:04;;;;;;;9.23;4.45;;;;;;;16.71;66.70;99452.09;5042534;28;20418;-75
2023/07/04 04:46:31;;;;;;;10.30;3.55;;;;;;;16.78;66.14;99458.78;5043028;28;20453;-75
2023/07/04 04:49:03;;;;;;;13.48;3.92;;;;;;;16.80;66.00;99458.50;5044623;28;20041;-76
2023/07/04 04:51:29;;;;;;;8.55;2.40;;;;;;;16.78;66.55;99463.50;5046676;28;20360;-75
2023/07/04 04:53:54;;;;;;;10.77;2.22;;;;;;;16.73;66.26;99460.88;5046993;28;20051;-75
2023/07/04 04:56:19;;;;;;;6.33;3.47;;;;;;;16.63;66.74;99460.00;5046124;28;20033;-75
2023/07/04 04:58:45;;;;;;;11.43;3.08;;;;;;;16.55;66.69;99463.50;5046269;28;20682;-75
2023/07/04 05:01:16;;;;;;;8.32;3.28;;;;;;;16.31;67.61;99461.88;5046450;28;20065;-75
2023/07/04 05:03:42;;;;;;;10.90;3.42;;;;;;;16.57;67.02;99464.81;5046787;28;20043;-75
2023/07/04 05:06:08;;;;;;;9.20;2.75;;;;;;;16.37;67.80;99468.88;5046016;28;20064;-75
2023/07/04 05:08:34;;;;;;;7.40;2.57;;;;;;;16.29;67.92;99467.66;5046443;28;20527;-75
2023/07/04 05:11:02;;;;;;;10.07;3.20;;;;;;;16.18;68.53;99472.59;5046232;28;20439;-74
2023/07/04 05:13:28;;;;;;;10.27;3.15;;;;;;;16.43;67.73;99475.88;5046121;28;20143;-75
2023/07/04 05:16:05;;;;;;;22.08;5.03;;;;;;;16.50;67.47;99464.44;5046012;28;20178;-75
2023/07/04 05:18:33;;;;;;;12.63;3.78;;;;;;;16.38;67.71;99476.00;5045710;28;20413;-75
2023/07/04 05:21:20;;;;;;;9.00;3.35;;;;;;;16.40;67.79;99479.25;5045832;28;20489;-74
2023/07/04 05:23:48;;;;;;;8.98;2.80;;;;;;;16.29;68.14;99481.41;5046177;28;20040;-75
2023/07/04 05:26:17;;;;;;;14.80;3.60;;;;;;;16.49;67.93;99484.00;5046724;28;20068;-75
2023/07/04 05:28:43;;;;;;;9.95;3.97;;;;;;;16.52;67.65;99475.13;5045061;28;20036;-75
2023/07/04 05:31:11;;;;;;;9.68;3.10;;;;;;;16.57;67.85;99481.34;5045559;28;20041;-74
2023/07/04 05:33:37;;;;;;;14.65;2.90;;;;;;;16.68;67.48;99470.88;5046400;28;20033;-75
2023/07/04 05:36:17;;;;;;;12.35;5.53;;;;;;;16.78;67.12;99472.56;5045586;28;20485;-75
2023/07/04 05:38:43;;;;;;;15.52;4.00;;;;;;;16.46;68.37;99474.44;5045481;28;20082;-76
2023/07/04 05:41:16;;;;;;;9.15;2.88;;;;;;;16.65;67.96;99467.94;5045463;28;20045;-75
2023/07/04 05:43:42;;;;;;;16.17;3.77;;;;;;;16.77;67.61;99464.63;5045564;28;20687;-75
2023/07/04 05:46:09;;;;;;;8.75;2.30;;;;;;;16.94;67.31;99474.13;5045355;28;20028;-75
2023/07/04 05:48:36;;;;;;;18.83;3.75;;;;;;;16.95;67.24;99478.47;5045196;28;20541;-75
2023/07/04 05:51:03;;;;;;;9.38;2.75;;;;;;;17.05;66.92;99483.72;5045300;28;20047;-75
2023/07/04 05:53:31;;;;;;;9.00;3.92;;;;;;;17.06;66.66;99482.59;5045217;28;20032;-75
2023/07/04 05:56:11;;;;;;;18.10;3.60;;;;;;;16.87;67.10;99491.88;5045008;28;20478;-75
2023/07/04 05:58:38;;;;;;;13.05;3.85;;;;;;;17.04;66.72;99493.13;5044791;28;20117;-75
2023/07/04 06:01:11;;;;;;;7.38;3.38;;;;;;;17.07;66.91;99488.91;5042506;28;20040;-74
2023/07/04 06:03:37;;;;;;;13.95;3.42;;;;;;;16.86;67.25;99505.97;5045312;28;20028;-75
2023/07/04 06:06:03;;;;;;;10.90;4.18;;;;;;;16.92;67.32;99505.50;5045376;28;20044;-75
2023/07/04 06:08:28;;;;;;;10.18;3.80;;;;;;;17.04;67.05;99507.69;5044691;28;20033;-75
2023/07/04 06:11:02;;;;;;;8.57;3.30;;;;;;;17.01;67.34;99504.75;5045050;28;20041;-74
2023/07/04 06:13:28;;;;;;;13.10;5.43;;;;;;;17.08;67.38;99518.91;5045360;28;20258;-75
2023/07/04 06:15:53;;;;;;;23.05;3.40;;;;;;;17.26;66.08;99508.84;5044839;28;20049;-75
2023/07/04 06:18:18;;;;;;;10.20;4.43;;;;;;;17.29;66.23;99512.09;5044495;28;20529;-75
2023/07/04 06:20:44;;;;;;;22.88;5.90;;;;;;;17.26;65.98;99513.53;5044922;28;20269;-75
2023/07/04 06:23:09;;;;;;;13.32;4.35;;;;;;;17.19;66.29;99516.72;5044930;28;20486;-75
2023/07/04 06:25:34;;;;;;;19.30;5.50;;;;;;;17.24;66.48;99510.25;5045057;28;20040;-75
2023/07/04 06:28:01;;;;;;;14.73;3.40;;;;;;;17.31;66.26;99521.63;5044465;28;20666;-75
2023/07/04 06:30:29;;;;;;;24.35;3.83;;;;;;;17.27;65.80;99520.63;5044965;28;20033;-74
2023/07/04 06:32:58;;;;;;;12.85;5.80;;;;;;;17.30;66.12;99520.03;5044810;28;20392;-75
2023/07/04 06:35:23;;;;;;;9.55;4.18;;;;;;;17.40;65.23;99513.41;5044340;28;20060;-74
2023/07/04 06:37:49;;;;;;;8.25;3.75;;;;;;;17.26;65.41;99510.75;5044307;28;20492;-74
2023/07/04 06:40:14;;;;;;;10.70;4.43;;;;;;;17.36;65.25;99524.25;5043982;28;20060;-75
2023/07/04 06:42:39;;;;;;;18.55;5.43;;;;;;;17.27;65.13;99528.91;5044783;28;20280;-75
2023/07/04 06:45:05;;;;;;;9.52;4.63;;;;;;;17.37;65.02;99527.84;5044431;28;20049;-74
2023/07/04 06:47:31;;;;;;;15.32;3.95;;;;;;;17.58;64.40;99528.09;5044233;28;20162;-75
2023/07/04 06:49:56;;;;;;;12.20;3.53;;;;;;;17.59;63.97;99535.22;5043455;28;20044;-75
2023/07/04 06:52:22;;;;;;;14.47;5.93;;;;;;;17.45;64.62;99531.75;5043961;28;20817;-74
2023/07/04 06:54:51;;;;;;;14.18;4.25;;;;;;;17.33;64.85;99535.91;5044586;28;20025;-74
2023/07/04 06:57:17;;;;;;;7.38;2.92;;;;;;;17.38;64.59;99527.53;5043750;28;20040;-75
2023/07/04 06:59:44;;;;;;;16.30;3.63;;;;;;;17.66;64.46;99533.94;5043511;28;20032;-71
2023/07/04 07:02:11;;;;;;;18.05;4.50;;;;;;;17.67;64.24;99516.28;5043285;28;20186;-70
2023/07/04 07:04:36;;;;;;;9.70;3.70;;;;;;;17.71;64.19;99522.78;5043511;28;20075;-70
2023/07/04 07:07:02;;;;;;;9.43;3.50;;;;;;;17.80;63.70;99515.34;5043594;28;20434;-67
2023/07/04 07:09:30;;;;;;;8.00;2.75;;;;;;;17.80;63.25;99523.63;5042910;28;20693;-68
2023/07/04 07:11:55;;;;;;;8.90;3.00;;;;;;;17.86;62.67;99532.53;5043478;28;20462;-68
2023/07/04 07:14:20;;;;;;;9.13;3.75;;;;;;;17.79;62.50;99537.72;5043092;28;20132;-67
2023/07/04 07:16:46;;;;;;;11.00;3.03;;;;;;;17.91;62.18;99535.16;5042737;28;20033;-68
2023/07/04 07:19:11;;;;;;;8.33;4.00;;;;;;;18.26;61.71;99536.41;5042656;28;20040;-67
2023/07/04 07:21:37;;;;;;;11.70;3.93;;;;;;;18.12;61.52;99536.50;5043441;28;20292;-68
2023/07/04 07:24:03;;;;;;;20.02;5.15;;;;;;;18.17;61.77;99544.66;5042863;28;20460;-68
2023/07/04 07:26:28;;;;;;;12.93;3.63;;;;;;;17.96;61.82;99534.19;5043070;28;20044;-68
2023/07/04 07:28:53;;;;;;;12.40;4.73;;;;;;;17.74;62.45;99536.75;5042768;28;20040;-67
2023/07/04 07:31:25;;;;;;;8.17;4.50;;;;;;;17.94;62.27;99542.00;5042842;28;20260;-67
2023/07/04 07:33:51;;;;;;;6.53;2.80;;;;;;;17.93;61.68;99548.63;5043504;28;20277;-67
2023/07/04 07:36:25;;;;;;;8.45;3.35;;;;;;;18.05;61.72;99554.34;5041517;28;20033;-68
2023/07/04 07:38:51;;;;;;;;;;;;;;;18.15;61.44;99538.63;5043390;28;20487;-68
2023/07/04 07:41:19;;;;;;;10.60;4.38;;;;;;;18.19;61.04;99548.72;5042998;28;20180;-67
2023/07/04 07:43:44;;;;;;;13.05;3.83;;;;;;;18.40;60.95;99555.56;5043147;28;20036;-68
2023/07/04 07:46:12;;;;;;;14.37;4.57;;;;;;;18.26;59.68;99553.78;5042764;28;20074;-68
2023/07/04 07:48:37;;;;;;;8.98;4.55;;;;;;;18.33;60.33;99561.56;5042364;28;20269;-67
2023/07/04 07:51:03;;;;;;;9.70;3.42;;;;;;;18.43;59.58;99563.19;5042711;28;20037;-67
2023/07/04 07:53:29;;;;;;;22.50;5.65;;;;;;;18.60;59.70;99561.59;5042548;28;20437;-68
2023/07/04 07:55:54;;;;;;;10.10;3.20;;;;;;;18.62;59.04;99553.78;5042814;28;20033;-71
2023/07/04 07:58:20;;;;;;;14.47;4.77;;;;;;;18.58;58.89;99563.84;5041993;28;20052;-67
2023/07/04 08:00:45;;;;;;;9.18;3.00;;;;;;;18.46;58.03;99557.03;5042725;28;20281;-69
2023/07/04 08:03:10;;;;;;;10.50;3.93;;;;;;;18.53;57.61;99559.31;5042270;28;20037;-69
2023/07/04 08:05:38;;;;;;;11.38;3.55;;;;;;;18.68;57.92;99558.00;5043023;28;20115;-68
2023/07/04 08:08:04;;;;;;;8.73;3.83;;;;;;;18.46;57.79;99554.28;5041886;28;20044;-67
2023/07/04 08:10:33;;;;;;;16.90;3.22;;;;;;;18.46;57.61;99557.03;5042833;28;20033;-68
2023/07/04 08:12:58;;;;;;;13.18;3.50;;;;;;;18.58;58.07;99547.28;5043066;28;20032;-67
2023/07/04 08:15:24;;;;;;;19.40;4.67;;;;;;;18.58;56.89;99552.81;5042459;28;20118;-69
2023/07/04 08:17:49;;;;;;;14.07;3.77;;;;;;;18.73;56.05;99552.31;5042920;28;20044;-67
2023/07/04 08:20:14;;;;;;;9.27;3.30;;;;;;;18.56;55.70;99564.19;5042275;28;20279;-68
2023/07/04 08:22:39;;;;;;;10.63;3.03;;;;;;;18.51;55.43;99567.13;5042204;28;20493;-67
2023/07/04 08:25:05;;;;;;;15.17;3.90;;;;;;;18.82;55.84;99565.31;5042323;28;20270;-68
2023/07/04 08:27:30;;;;;;;4.93;2.13;;;;;;;18.74;55.55;99562.25;5042469;28;20170;-68
2023/07/04 08:29:56;;;;;;;11.50;3.25;;;;;;;18.88;55.42;99555.72;5042060;28;20039;-68
2023/07/04 08:32:21;;;;;;;12.83;3.03;;;;;;;18.90;54.45;99559.78;5042606;28;20124;-67
2023/07/04 08:34:46;;;;;;;10.07;2.73;;;;;;;18.94;53.65;99554.41;5042297;28;20402;-68
2023/07/04 08:37:13;;;;;;;9.00;3.33;;;;;;;18.90;53.31;99556.22;5041801;28;20032;-68
2023/07/04 08:39:38;;;;;;;10.02;3.60;;;;;;;18.87;54.13;99556.88;5042044;28;20695;-68
2023/07/04 08:42:04;;;;;;;7.57;2.10;;;;;;;19.09;53.57;99552.28;5042261;28;20029;-67
2023/07/04 08:44:44;;;;;;;12.23;2.53;;;;;;;19.17;52.77;99553.44;5042505;28;20345;-69
2023/07/04 08:47:11;;;;;;;6.03;2.22;;;;;;;19.28;53.04;99562.19;5042449;28;20581;-68
2023/07/04 08:49:50;;;;;;;10.65;2.60;;;;;;;19.44;52.26;99549.47;5041890;28;20021;-68
2023/07/04 08:52:37;;;;;;;14.77;4.82;;;;;;;19.49;52.68;99556.75;5041931;28;20541;-68
2023/07/04 08:55:13;;;;;;;8.20;3.25;;;;;;;19.40;52.04;99567.03;5042200;28;20044;-67
2023/07/04 08:58:00;;;;;;;7.43;3.38;;;;;;;19.31;51.34;99567.88;5042325;28;20044;-68
2023/07/04 09:00:30;;;;;;;6.78;3.05;;;;;;;19.54;51.85;99572.38;5041758;28;20540;-68
2023/07/04 09:03:13;;;;;;;6.85;2.88;;;;;;;19.53;52.33;99563.25;5042299;28;20037;-67
2023/07/04 09:05:56;;;;;;;23.42;3.55;;;;;;;19.67;50.90;99570.53;5042315;28;20040;-68
2023/07/04 09:08:45;;;;;;;8.15;2.10;;;;;;;19.63;49.89;99570.38;5041675;28;20059;-67
2023/07/04 09:11:11;;;;;;;7.00;2.03;;;;;;;19.37;48.97;99571.28;5042190;28;20099;-67
2023/07/04 09:14:01;;;;;;;5.35;2.58;;;;;;;19.48;49.79;99566.22;5041938;28;20029;-67
2023/07/04 09:16:39;;;;;;;8.07;2.50;;;;;;;19.47;50.34;99568.16;5042072;28;20652;-68
2023/07/04 09:19:08;;;;;;;12.07;2.40;;;;;;;19.68;51.06;99586.78;5041473;28;20029;-67
2023/07/04 09:21:33;;;;;;;8.30;2.67;;;;;;;19.86;50.10;99592.25;5040883;28;20033;-67
2023/07/04 09:24:03;;;;;;;10.70;2.83;;;;;;;19.78;48.88;99591.16;5041992;28;20478;-68
2023/07/04 09:26:44;;;;;;;9.82;2.53;;;;;;;19.84;48.72;99589.00;5042317;28;20048;-67
2023/07/04 09:29:11;;;;;;;8.18;2.63;;;;;;;19.91;47.74;99588.50;5041687;28;20139;-67
2023/07/04 09:31:39;;;;;;;7.30;2.13;;;;;;;19.98;47.56;99593.47;5042510;28;20167;-68
2023/07/04 09:34:43;;;;;;;7.30;2.08;;;;;;;20.00;48.00;99597.56;5041806;28;20056;-67
2023/07/04 09:37:13;;;;;;;10.77;3.38;;;;;;;19.91;47.18;99594.81;5002487;28;20116;-67
2023/07/04 09:39:59;;;;;;;9.80;2.42;;;;;;;19.76;46.83;99598.13;5038623;28;20672;-67
2023/07/04 09:42:36;;;;;;;8.73;2.85;;;;;;;19.89;47.08;99599.88;5045432;28;20501;-68
2023/07/04 09:45:07;;;;;;;4.85;1.90;;;;;;;20.06;46.57;99578.78;5045309;28;20056;-67
2023/07/04 09:47:33;;;;;;;6.80;3.33;;;;;;;20.26;46.66;99582.78;5045401;28;20032;-67
2023/07/04 09:50:10;;;;;;;6.45;2.17;;;;;;;20.37;46.41;99594.28;5045040;28;20048;-67
2023/07/04 09:52:35;;;;;;;7.15;2.15;;;;;;;20.30;46.36;99575.44;5044958;28;20517;-67
2023/07/04 09:55:13;;;;;;;5.93;2.63;;;;;;;20.46;45.02;99571.28;5045225;28;20025;-67
2023/07/04 09:57:38;;;;;;;11.25;2.72;;;;;;;20.28;45.42;99568.59;5044972;28;20068;-67
2023/07/04 10:00:19;;;;;;;9.88;2.15;;;;;;;20.55;44.81;99565.66;5044788;28;20068;-67
2023/07/04 10:02:46;;;;;;;7.22;2.35;;;;;;;20.72;45.28;99586.88;5045495;28;20040;-67
2023/07/04 10:05:25;;;;;;;3.88;1.67;;;;;;;20.81;44.27;99582.06;5044847;28;20028;-68
2023/07/04 10:08:05;;;;;;;8.20;2.38;;;;;;;20.77;44.34;99589.41;5044910;28;20139;-68
2023/07/04 10:10:37;;;;;;;9.32;2.55;;;;;;;20.80;45.00;99587.94;5044827;28;20464;-68
2023/07/04 10:13:05;;;;;;;9.15;2.58;;;;;;;20.86;44.98;99594.91;5043314;28;20417;-67
2023/07/04 10:15:40;;;;;;;13.68;2.53;;;;;;;20.81;45.55;99590.38;5044956;28;20052;-67
2023/07/04 10:18:05;;;;;;;6.95;3.10;;;;;;;21.03;45.96;99590.38;5044712;28;20033;-67
2023/07/04 10:20:36;;;;;;;6.13;2.55;;;;;;;21.01;45.49;99593.50;5045323;28;20435;-67
2023/07/04 10:23:01;;;;;;;10.02;2.78;;;;;;;20.69;45.32;99601.38;5045071;28;20028;-67
2023/07/04 10:25:29;;;;;;;6.30;2.40;;;;;;;20.89;45.30;99591.44;5045043;28;20701;-67
2023/07/04 10:28:11;;;;;;;12.63;2.55;;;;;;;21.14;44.73;99591.56;5045110;28;20071;-67
2023/07/04 10:30:37;;;;;;;5.68;2.17;;;;;;;21.17;42.89;99577.03;5045587;28;20064;-70
2023/07/04 10:33:21;;;;;;;7.53;2.90;;;;;;;21.34;44.37;99584.34;5044726;28;20675;-67
2023/07/04 10:35:47;;;;;;;9.88;3.53;;;;;;;21.21;44.97;99588.25;5044832;28;20028;-67
2023/07/04 10:38:47;;;;;;;10.73;2.75;;;;;;;21.55;44.84;99588.22;5044045;28;20045;-67
2023/07/04 10:41:39;;;;;;;4.45;2.22;;;;;;;21.27;44.49;99586.88;5041515;28;20045;-68
2023/07/04 10:44:10;;;;;;;7.07;2.53;;;;;;;21.33;45.70;99588.28;5044433;28;20410;-67
2023/07/04 10:47:02;;;;;;;10.57;2.22;;;;;;;21.42;44.92;99579.88;5044298;28;20044;-67
2023/07/04 10:49:30;;;;;;;8.43;2.85;;;;;;;21.26;43.74;99570.56;5043328;28;20407;-68
2023/07/04 10:52:21;;;;;;;6.13;2.58;;;;;;;21.40;44.23;99575.84;5044357;28;20418;-67
2023/07/04 10:54:46;;;;;;;11.95;3.05;;;;;;;21.64;43.49;99575.03;5044969;28;20052;-68
2023/07/04 10:57:23;;;;;;;11.82;3.00;;;;;;;21.65;43.04;99586.94;5044518;28;20041;-67
2023/07/04 10:59:54;;;;;;;12.80;3.05;;;;;;;21.67;42.54;99581.88;5043568;28;20588;-68
2023/07/04 11:02:26;;;;;;;12.10;2.85;;;;;;;21.80;42.36;99577.16;5044548;28;20044;-68
2023/07/04 11:04:58;;;;;;;9.75;2.42;;;;;;;22.07;41.98;99585.94;5044473;28;20033;-68
2023/07/04 11:07:26;;;;;;;7.40;2.05;;;;;;;22.11;42.77;99586.09;5044028;28;20614;-69
2023/07/04 11:09:56;;;;;;;6.75;1.95;;;;;;;21.87;42.57;99584.91;5043102;28;20509;-68
2023/07/04 11:12:26;;;;;;;7.70;1.67;;;;;;;22.04;43.19;99578.34;5043498;28;20039;-68
2023/07/04 11:15:03;;;;;;;9.23;2.03;;;;;;;22.06;42.38;99595.44;5043899;28;20462;-68
2023/07/04 11:17:31;;;;;;;16.77;3.10;;;;;;;21.93;42.66;99587.13;5043813;28;20033;-68
2023/07/04 11:20:13;;;;;;;3.88;1.52;;;;;;;21.92;42.95;99584.69;5043192;28;20390;-68
2023/07/04 11:22:52;;;;;;;6.13;2.63;;;;;;;22.39;42.35;99591.69;5043016;28;20044;-68
2023/07/04 11:25:45;;;;;;;6.25;2.90;;;;;;;22.24;41.85;99590.47;5044027;28;20068;-68
2023/07/04 11:28:16;;;;;;;7.83;2.87;;;;;;;22.32;40.21;99597.03;5043512;28;20028;-67
2023/07/04 11:30:45;;;;;;;14.65;3.05;;;;;;;22.24;40.71;99596.00;5043926;28;20246;-68
2023/07/04 11:33:33;;;;;;;9.75;2.60;;;;;;;22.48;40.38;99587.97;5043472;28;20036;-68
2023/07/04 11:36:03;;;;;;;48.28;46.17;;;;;;;22.65;39.34;99597.19;5043510;28;20044;-67
2023/07/04 11:38:30;;;;;;;974.53;906.72;;;;;;;22.78;38.29;99573.00;5043652;28;20535;-69